sensor_id;sensor_type;location;lat;lon;timestamp;temperature;humidity
18690;DHT22;9782;52.930;15.562;2023-04-19T05:16:08;4.40;99.90
18690;DHT22;9782;52.930;15.562;2023-04-19T05:18:35;4.40;99.90
18690;DHT22;9782;52.930;15.562;2023-04-19T05:21:02;4.50;99.90
18690;DHT22;9782;52.930;15.562;2023-04-19T05:23:29;4.60;99.90
18690;DHT22;9782;52.930;15.562;2023-04-19T05:25:56;4.60;99.90
18690;DHT22;9782;52.930;15.562;2023-04-19T05:28:23;4.70;99.90
18690;DHT22;9782;52.930;15.562;2023-04-19T05:30:51;4.80;99.90
18690;DHT22;9782;52.930;15.562;2023-04-19T05:33:19;4.80;99.90
18690;DHT22;9782;52.930;15.562;2023-04-19T05:35:46;4.90;99.90
18690;DHT22;9782;52.930;15.562;2023-04-19T05:38:12;5.00;70.20
18690;DHT22;9782;52.930;15.562;2023-04-19T05:40:39;5.10;1.00
18690;DHT22;9782;52.930;15.562;2023-04-19T05:43:06;5.10;1.00
18690;DHT22;9782;52.930;15.562;2023-04-19T05:45:33;5.20;1.00
18690;DHT22;9782;52.930;15.562;2023-04-19T05:48:00;5.30;1.00
18690;DHT22;9782;52.930;15.562;2023-04-19T05:50:28;5.30;1.00
18690;DHT22;9782;52.930;15.562;2023-04-19T05:52:55;5.40;1.00
18690;DHT22;9782;52.930;15.562;2023-04-19T05:55:22;5.40;1.00
18690;DHT22;9782;52.930;15.562;2023-04-19T05:57:49;5.50;1.00
18690;DHT22;9782;52.930;15.562;2023-04-19T06:00:16;5.60;1.00
18690;DHT22;9782;52.930;15.562;2023-04-19T06:02:43;5.70;1.00
18690;DHT22;9782;52.930;15.562;2023-04-19T06:05:10;5.80;99.90
18690;DHT22;9782;52.930;15.562;2023-04-19T06:07:38;5.90;99.90
18690;DHT22;9782;52.930;15.562;2023-04-19T06:10:06;6.00;99.90
18690;DHT22;9782;52.930;15.562;2023-04-19T06:12:33;6.10;99.90
18690;DHT22;9782;52.930;15.562;2023-04-19T06:15:00;6.10;82.80
18690;DHT22;9782;52.930;15.562;2023-04-19T06:17:26;6.20;99.90
18690;DHT22;9782;52.930;15.562;2023-04-19T06:19:54;6.30;1.00
18690;DHT22;9782;52.930;15.562;2023-04-19T06:22:20;6.40;1.00
18690;DHT22;9782;52.930;15.562;2023-04-19T06:24:49;6.40;1.00
18690;DHT22;9782;52.930;15.562;2023-04-19T06:27:16;6.50;1.00
18690;DHT22;9782;52.930;15.562;2023-04-19T06:29:42;6.60;1.00
18690;DHT22;9782;52.930;15.562;2023-04-19T06:32:10;6.70;1.00
18690;DHT22;9782;52.930;15.562;2023-04-19T06:34:36;6.80;99.90
18690;DHT22;9782;52.930;15.562;2023-04-19T06:37:03;6.70;1.00
18690;DHT22;9782;52.930;15.562;2023-04-19T06:39:30;7.00;99.90
18690;DHT22;9782;52.930;15.562;2023-04-19T06:41:58;7.10;99.90
18690;DHT22;9782;52.930;15.562;2023-04-19T06:44:25;7.30;1.00
18690;DHT22;9782;52.930;15.562;2023-04-19T06:46:52;7.40;99.90
18690;DHT22;9782;52.930;15.562;2023-04-19T06:49:19;7.50;1.00
18690;DHT22;9782;52.930;15.562;2023-04-19T06:51:47;7.70;99.90
18690;DHT22;9782;52.930;15.562;2023-04-19T06:54:14;7.90;1.00
18690;DHT22;9782;52.930;15.562;2023-04-19T06:56:42;8.10;1.00
18690;DHT22;9782;52.930;15.562;2023-04-19T06:59:13;8.20;99.90
18690;DHT22;9782;52.930;15.562;2023-04-19T07:01:41;8.30;99.90
18690;DHT22;9782;52.930;15.562;2023-04-19T07:04:07;8.30;99.90
18690;DHT22;9782;52.930;15.562;2023-04-19T07:06:34;8.30;1.00
18690;DHT22;9782;52.930;15.562;2023-04-19T07:09:02;8.30;1.00
18690;DHT22;9782;52.930;15.562;2023-04-19T07:11:30;8.20;99.90
18690;DHT22;9782;52.930;15.562;2023-04-19T07:13:57;8.20;99.90
18690;DHT22;9782;52.930;15.562;2023-04-19T07:16:25;8.20;63.90
18690;DHT22;9782;52.930;15.562;2023-04-19T07:18:52;8.20;57.90
18690;DHT22;9782;52.930;15.562;2023-04-19T07:21:19;8.20;1.00
18690;DHT22;9782;52.930;15.562;2023-04-19T07:23:46;8.30;1.00
18690;DHT22;9782;52.930;15.562;2023-04-19T07:26:12;8.30;96.60
18690;DHT22;9782;52.930;15.562;2023-04-19T07:28:39;8.40;1.00
18690;DHT22;9782;52.930;15.562;2023-04-19T07:31:06;8.40;1.00
18690;DHT22;9782;52.930;15.562;2023-04-19T07:33:34;8.40;99.90
18690;DHT22;9782;52.930;15.562;2023-04-19T07:36:01;8.50;99.90
18690;DHT22;9782;52.930;15.562;2023-04-19T07:38:28;8.60;1.00
18690;DHT22;9782;52.930;15.562;2023-04-19T07:40:55;8.70;1.00
18690;DHT22;9782;52.930;15.562;2023-04-19T07:43:21;8.80;1.00
18690;DHT22;9782;52.930;15.562;2023-04-19T07:45:48;8.80;1.00
18690;DHT22;9782;52.930;15.562;2023-04-19T07:48:15;8.90;1.00
18690;DHT22;9782;52.930;15.562;2023-04-19T07:50:43;9.10;1.00
18690;DHT22;9782;52.930;15.562;2023-04-19T07:53:10;9.20;99.90
18690;DHT22;9782;52.930;15.562;2023-04-19T07:55:37;9.30;99.90
18690;DHT22;9782;52.930;15.562;2023-04-19T07:58:03;9.30;99.90
18690;DHT22;9782;52.930;15.562;2023-04-19T08:00:30;9.40;1.00
18690;DHT22;9782;52.930;15.562;2023-04-19T08:02:59;9.40;1.00
18690;DHT22;9782;52.930;15.562;2023-04-19T08:05:26;9.50;1.00
18690;DHT22;9782;52.930;15.562;2023-04-19T08:07:54;9.60;1.00
18690;DHT22;9782;52.930;15.562;2023-04-19T08:10:21;9.70;1.00
18690;DHT22;9782;52.930;15.562;2023-04-19T08:12:48;9.70;1.00
18690;DHT22;9782;52.930;15.562;2023-04-19T08:15:15;9.70;1.00
18690;DHT22;9782;52.930;15.562;2023-04-19T08:17:42;9.80;99.90
18690;DHT22;9782;52.930;15.562;2023-04-19T08:20:10;9.80;1.00
18690;DHT22;9782;52.930;15.562;2023-04-19T08:22:37;9.90;99.90
18690;DHT22;9782;52.930;15.562;2023-04-19T08:25:07;9.90;99.90
18690;DHT22;9782;52.930;15.562;2023-04-19T08:27:35;9.90;99.90
18690;DHT22;9782;52.930;15.562;2023-04-19T08:30:02;10.00;99.90
18690;DHT22;9782;52.930;15.562;2023-04-19T08:32:29;10.10;99.90
18690;DHT22;9782;52.930;15.562;2023-04-19T08:34:55;10.40;99.90
18690;DHT22;9782;52.930;15.562;2023-04-19T08:37:22;10.60;1.00
18690;DHT22;9782;52.930;15.562;2023-04-19T08:39:50;10.70;1.00
18690;DHT22;9782;52.930;15.562;2023-04-19T08:42:18;10.90;1.00
18690;DHT22;9782;52.930;15.562;2023-04-19T08:44:45;11.00;1.00
18690;DHT22;9782;52.930;15.562;2023-04-19T08:47:12;11.10;1.00
18690;DHT22;9782;52.930;15.562;2023-04-19T08:49:41;11.30;1.00
18690;DHT22;9782;52.930;15.562;2023-04-19T08:52:09;11.30;1.00
18690;DHT22;9782;52.930;15.562;2023-04-19T08:54:38;11.30;1.00
18690;DHT22;9782;52.930;15.562;2023-04-19T08:57:05;11.40;99.90
18690;DHT22;9782;52.930;15.562;2023-04-19T08:59:35;11.30;99.90
18690;DHT22;9782;52.930;15.562;2023-04-19T09:02:02;11.40;99.90
18690;DHT22;9782;52.930;15.562;2023-04-19T09:04:29;11.50;99.90
18690;DHT22;9782;52.930;15.562;2023-04-19T09:06:56;11.60;99.90
18690;DHT22;9782;52.930;15.562;2023-04-19T09:09:24;11.60;99.90
18690;DHT22;9782;52.930;15.562;2023-04-19T09:11:51;11.70;99.90
18690;DHT22;9782;52.930;15.562;2023-04-19T09:14:19;11.60;49.70
18690;DHT22;9782;52.930;15.562;2023-04-19T09:16:48;11.60;34.90
18690;DHT22;9782;52.930;15.562;2023-04-19T09:19:16;11.60;41.30
18690;DHT22;9782;52.930;15.562;2023-04-19T09:21:43;11.60;11.00
18690;DHT22;9782;52.930;15.562;2023-04-19T09:24:10;11.60;73.30
18690;DHT22;9782;52.930;15.562;2023-04-19T09:26:37;11.50;25.40
18690;DHT22;9782;52.930;15.562;2023-04-19T09:29:05;11.40;78.90
18690;DHT22;9782;52.930;15.562;2023-04-19T09:31:33;11.40;13.80
18690;DHT22;9782;52.930;15.562;2023-04-19T09:34:13;11.40;3.50
18690;DHT22;9782;52.930;15.562;2023-04-19T09:36:40;11.30;1.00
18690;DHT22;9782;52.930;15.562;2023-04-19T09:39:07;11.20;1.00
18690;DHT22;9782;52.930;15.562;2023-04-19T09:41:35;11.20;1.00
18690;DHT22;9782;52.930;15.562;2023-04-19T09:44:16;11.20;1.00
18690;DHT22;9782;52.930;15.562;2023-04-19T09:46:43;11.20;1.00
18690;DHT22;9782;52.930;15.562;2023-04-19T09:49:19;11.20;38.40
18690;DHT22;9782;52.930;15.562;2023-04-19T09:51:49;11.20;33.30
18690;DHT22;9782;52.930;15.562;2023-04-19T09:54:17;11.00;83.10
18690;DHT22;9782;52.930;15.562;2023-04-19T09:56:45;11.00;90.50
18690;DHT22;9782;52.930;15.562;2023-04-19T09:59:12;10.90;99.90
18690;DHT22;9782;52.930;15.562;2023-04-19T10:01:42;10.90;99.90
18690;DHT22;9782;52.930;15.562;2023-04-19T10:04:10;10.90;99.90
18690;DHT22;9782;52.930;15.562;2023-04-19T10:06:39;11.00;99.90
18690;DHT22;9782;52.930;15.562;2023-04-19T10:09:07;11.00;99.90
18690;DHT22;9782;52.930;15.562;2023-04-19T10:11:36;11.00;99.90
18690;DHT22;9782;52.930;15.562;2023-04-19T10:14:16;10.70;99.90
18690;DHT22;9782;52.930;15.562;2023-04-19T10:16:45;10.30;99.90
18690;DHT22;9782;52.930;15.562;2023-04-19T10:19:14;10.10;1.00
18690;DHT22;9782;52.930;15.562;2023-04-19T10:21:43;9.90;96.80
18690;DHT22;9782;52.930;15.562;2023-04-19T10:24:12;9.70;68.40
18690;DHT22;9782;52.930;15.562;2023-04-19T10:27:06;9.60;1.00
18690;DHT22;9782;52.930;15.562;2023-04-19T10:29:54;9.70;1.00
18690;DHT22;9782;52.930;15.562;2023-04-19T10:32:21;10.10;1.00
18690;DHT22;9782;52.930;15.562;2023-04-19T10:34:50;10.60;1.00
18690;DHT22;9782;52.930;15.562;2023-04-19T10:37:22;11.20;1.00
18690;DHT22;9782;52.930;15.562;2023-04-19T10:39:50;11.50;1.00
18690;DHT22;9782;52.930;15.562;2023-04-19T10:42:17;11.70;1.00
18690;DHT22;9782;52.930;15.562;2023-04-19T10:47:56;12.20;1.00
18690;DHT22;9782;52.930;15.562;2023-04-19T10:50:23;12.50;99.90
18690;DHT22;9782;52.930;15.562;2023-04-19T10:52:51;12.60;99.90
18690;DHT22;9782;52.930;15.562;2023-04-19T10:55:18;12.60;96.40
18690;DHT22;9782;52.930;15.562;2023-04-19T10:58:01;12.80;69.20
18690;DHT22;9782;52.930;15.562;2023-04-19T11:00:29;12.90;99.90
18690;DHT22;9782;52.930;15.562;2023-04-19T11:02:58;13.10;1.00
18690;DHT22;9782;52.930;15.562;2023-04-19T11:05:25;13.10;1.00
18690;DHT22;9782;52.930;15.562;2023-04-19T11:07:53;13.10;1.00
18690;DHT22;9782;52.930;15.562;2023-04-19T11:10:31;13.10;1.00
18690;DHT22;9782;52.930;15.562;2023-04-19T11:12:58;12.90;1.00
18690;DHT22;9782;52.930;15.562;2023-04-19T11:15:25;12.80;1.00
18690;DHT22;9782;52.930;15.562;2023-04-19T11:17:51;12.50;1.00
18690;DHT22;9782;52.930;15.562;2023-04-19T11:20:22;12.40;38.20
18690;DHT22;9782;52.930;15.562;2023-04-19T11:22:49;12.30;99.90
18690;DHT22;9782;52.930;15.562;2023-04-19T11:25:18;12.30;99.90
18690;DHT22;9782;52.930;15.562;2023-04-19T11:27:46;12.40;99.90
18690;DHT22;9782;52.930;15.562;2023-04-19T11:30:14;12.60;99.90
18690;DHT22;9782;52.930;15.562;2023-04-19T11:32:44;12.90;99.90
18690;DHT22;9782;52.930;15.562;2023-04-19T11:35:13;13.00;91.60
18690;DHT22;9782;52.930;15.562;2023-04-19T11:37:40;13.20;1.00
18690;DHT22;9782;52.930;15.562;2023-04-19T11:40:08;13.20;1.00
18690;DHT22;9782;52.930;15.562;2023-04-19T11:42:36;13.20;1.00
18690;DHT22;9782;52.930;15.562;2023-04-19T11:45:04;13.20;1.00
18690;DHT22;9782;52.930;15.562;2023-04-19T11:47:31;13.00;1.00
18690;DHT22;9782;52.930;15.562;2023-04-19T11:52:58;12.90;1.00
18690;DHT22;9782;52.930;15.562;2023-04-19T11:55:25;12.90;1.00
18690;DHT22;9782;52.930;15.562;2023-04-19T11:57:53;12.80;1.00
18690;DHT22;9782;52.930;15.562;2023-04-19T12:00:26;12.80;1.00
18690;DHT22;9782;52.930;15.562;2023-04-19T12:02:54;12.80;1.00
18690;DHT22;9782;52.930;15.562;2023-04-19T12:05:21;12.90;1.00
18690;DHT22;9782;52.930;15.562;2023-04-19T12:07:59;12.90;1.00
18690;DHT22;9782;52.930;15.562;2023-04-19T12:10:26;12.80;1.00
18690;DHT22;9782;52.930;15.562;2023-04-19T12:12:54;12.60;1.00
18690;DHT22;9782;52.930;15.562;2023-04-19T12:15:21;12.40;1.00
18690;DHT22;9782;52.930;15.562;2023-04-19T12:17:59;12.20;1.00
18690;DHT22;9782;52.930;15.562;2023-04-19T12:20:30;12.10;1.00
18690;DHT22;9782;52.930;15.562;2023-04-19T12:22:58;12.00;1.00
18690;DHT22;9782;52.930;15.562;2023-04-19T12:25:27;11.90;1.00
18690;DHT22;9782;52.930;15.562;2023-04-19T12:27:56;11.70;1.00
18690;DHT22;9782;52.930;15.562;2023-04-19T12:30:23;11.40;1.00
18690;DHT22;9782;52.930;15.562;2023-04-19T12:32:50;11.10;1.00
18690;DHT22;9782;52.930;15.562;2023-04-19T12:35:20;10.80;99.90
18690;DHT22;9782;52.930;15.562;2023-04-19T12:37:46;10.60;99.90
18690;DHT22;9782;52.930;15.562;2023-04-19T12:40:14;10.40;1.00
18690;DHT22;9782;52.930;15.562;2023-04-19T12:42:41;10.30;1.00
18690;DHT22;9782;52.930;15.562;2023-04-19T12:45:11;10.20;1.00
18690;DHT22;9782;52.930;15.562;2023-04-19T12:47:38;10.20;1.00
18690;DHT22;9782;52.930;15.562;2023-04-19T12:50:06;10.10;1.00
18690;DHT22;9782;52.930;15.562;2023-04-19T12:52:34;10.10;99.90
18690;DHT22;9782;52.930;15.562;2023-04-19T12:55:01;10.20;99.90
18690;DHT22;9782;52.930;15.562;2023-04-19T12:57:28;10.20;1.00
18690;DHT22;9782;52.930;15.562;2023-04-19T12:59:55;10.10;46.50
18690;DHT22;9782;52.930;15.562;2023-04-19T13:02:23;10.20;99.90
18690;DHT22;9782;52.930;15.562;2023-04-19T13:04:50;10.10;99.90
18690;DHT22;9782;52.930;15.562;2023-04-19T13:07:17;10.10;99.90
18690;DHT22;9782;52.930;15.562;2023-04-19T13:09:43;10.10;1.00
18690;DHT22;9782;52.930;15.562;2023-04-19T13:12:10;10.20;1.00
18690;DHT22;9782;52.930;15.562;2023-04-19T13:14:37;10.20;1.00
18690;DHT22;9782;52.930;15.562;2023-04-19T13:17:04;10.30;1.00
18690;DHT22;9782;52.930;15.562;2023-04-19T13:19:32;10.40;1.00
18690;DHT22;9782;52.930;15.562;2023-04-19T13:21:59;10.40;1.00
18690;DHT22;9782;52.930;15.562;2023-04-19T13:24:26;10.40;1.00
18690;DHT22;9782;52.930;15.562;2023-04-19T13:26:53;10.30;1.00
18690;DHT22;9782;52.930;15.562;2023-04-19T13:41:31;10.20;1.00
18690;DHT22;9782;52.930;15.562;2023-04-19T13:43:58;10.50;99.90
18690;DHT22;9782;52.930;15.562;2023-04-19T13:46:25;10.50;99.90
18690;DHT22;9782;52.930;15.562;2023-04-19T13:48:51;10.40;99.90
18690;DHT22;9782;52.930;15.562;2023-04-19T13:51:18;10.40;87.40
18690;DHT22;9782;52.930;15.562;2023-04-19T13:53:45;10.40;99.90
18690;DHT22;9782;52.930;15.562;2023-04-19T13:56:13;10.30;99.90
18690;DHT22;9782;52.930;15.562;2023-04-19T13:58:41;10.30;99.90
18690;DHT22;9782;52.930;15.562;2023-04-19T14:01:08;10.30;99.90
18690;DHT22;9782;52.930;15.562;2023-04-19T14:03:35;10.30;99.90
18690;DHT22;9782;52.930;15.562;2023-04-19T14:06:02;10.30;99.90
18690;DHT22;9782;52.930;15.562;2023-04-19T14:08:29;10.40;99.90
18690;DHT22;9782;52.930;15.562;2023-04-19T14:10:56;10.50;99.90
18690;DHT22;9782;52.930;15.562;2023-04-19T14:13:23;10.50;99.90
18690;DHT22;9782;52.930;15.562;2023-04-19T14:15:52;10.50;99.90
18690;DHT22;9782;52.930;15.562;2023-04-19T14:18:19;10.40;99.90
18690;DHT22;9782;52.930;15.562;2023-04-19T14:20:46;10.40;99.90
18690;DHT22;9782;52.930;15.562;2023-04-19T14:23:13;10.30;99.90
18690;DHT22;9782;52.930;15.562;2023-04-19T14:25:40;10.30;99.90
18690;DHT22;9782;52.930;15.562;2023-04-19T14:28:07;10.20;1.00
18690;DHT22;9782;52.930;15.562;2023-04-19T14:30:34;10.20;1.00
18690;DHT22;9782;52.930;15.562;2023-04-19T14:33:02;10.10;1.00
18690;DHT22;9782;52.930;15.562;2023-04-19T14:35:29;10.10;1.00
18690;DHT22;9782;52.930;15.562;2023-04-19T14:37:56;10.00;1.00
18690;DHT22;9782;52.930;15.562;2023-04-19T14:40:23;10.00;1.00
18690;DHT22;9782;52.930;15.562;2023-04-19T14:42:50;10.00;1.00
18690;DHT22;9782;52.930;15.562;2023-04-19T14:45:18;10.00;27.50
18690;DHT22;9782;52.930;15.562;2023-04-19T14:47:45;9.90;99.90
18690;DHT22;9782;52.930;15.562;2023-04-19T14:50:13;9.90;99.90
18690;DHT22;9782;52.930;15.562;2023-04-19T14:52:40;9.90;99.90
18690;DHT22;9782;52.930;15.562;2023-04-19T14:55:08;9.90;99.90
18690;DHT22;9782;52.930;15.562;2023-04-19T14:57:35;10.00;1.00
18690;DHT22;9782;52.930;15.562;2023-04-19T15:00:03;10.10;1.00
18690;DHT22;9782;52.930;15.562;2023-04-19T15:02:30;10.10;99.90
18690;DHT22;9782;52.930;15.562;2023-04-19T15:04:57;9.90;99.90
18690;DHT22;9782;52.930;15.562;2023-04-19T15:07:26;9.80;1.00
18690;DHT22;9782;52.930;15.562;2023-04-19T15:09:53;9.70;1.00
18690;DHT22;9782;52.930;15.562;2023-04-19T15:12:20;9.60;1.00
18690;DHT22;9782;52.930;15.562;2023-04-19T15:14:47;9.50;1.00
18690;DHT22;9782;52.930;15.562;2023-04-19T15:17:14;9.50;1.00
18690;DHT22;9782;52.930;15.562;2023-04-19T15:19:41;9.40;1.00
18690;DHT22;9782;52.930;15.562;2023-04-19T15:22:08;9.40;1.00
18690;DHT22;9782;52.930;15.562;2023-04-19T15:24:37;9.40;1.00
18690;DHT22;9782;52.930;15.562;2023-04-19T15:27:04;9.30;1.00
18690;DHT22;9782;52.930;15.562;2023-04-19T15:29:31;9.30;1.00
18690;DHT22;9782;52.930;15.562;2023-04-19T15:31:58;9.30;36.90
18690;DHT22;9782;52.930;15.562;2023-04-19T15:34:26;9.30;57.80
18690;DHT22;9782;52.930;15.562;2023-04-19T15:36:54;9.30;20.80
18690;DHT22;9782;52.930;15.562;2023-04-19T15:39:33;9.20;99.90
18690;DHT22;9782;52.930;15.562;2023-04-19T15:42:03;9.20;99.90
18690;DHT22;9782;52.930;15.562;2023-04-19T15:44:32;9.10;99.90
18690;DHT22;9782;52.930;15.562;2023-04-19T15:47:03;9.10;99.90
18690;DHT22;9782;52.930;15.562;2023-04-19T15:49:31;9.20;1.00
18690;DHT22;9782;52.930;15.562;2023-04-19T15:51:59;9.40;1.00
18690;DHT22;9782;52.930;15.562;2023-04-19T15:54:26;9.70;99.90
18690;DHT22;9782;52.930;15.562;2023-04-19T16:02:06;9.40;1.00
18690;DHT22;9782;52.930;15.562;2023-04-19T16:04:33;9.30;12.40
18690;DHT22;9782;52.930;15.562;2023-04-19T16:07:00;9.10;99.90
18690;DHT22;9782;52.930;15.562;2023-04-19T16:09:27;8.90;99.90
18690;DHT22;9782;52.930;15.562;2023-04-19T16:11:54;8.80;99.90
18690;DHT22;9782;52.930;15.562;2023-04-19T16:14:22;8.80;1.00
18690;DHT22;9782;52.930;15.562;2023-04-19T16:16:49;8.80;1.00
18690;DHT22;9782;52.930;15.562;2023-04-19T16:19:20;9.00;1.00
18690;DHT22;9782;52.930;15.562;2023-04-19T16:21:47;9.10;1.00
18690;DHT22;9782;52.930;15.562;2023-04-19T16:37:06;8.40;1.00
18690;DHT22;9782;52.930;15.562;2023-04-19T16:39:33;8.30;1.00
18690;DHT22;9782;52.930;15.562;2023-04-19T16:44:36;8.20;1.00
18690;DHT22;9782;52.930;15.562;2023-04-19T16:49:38;8.10;1.00
18690;DHT22;9782;52.930;15.562;2023-04-19T16:54:32;8.10;1.00
18690;DHT22;9782;52.930;15.562;2023-04-19T16:57:00;8.10;1.00
18690;DHT22;9782;52.930;15.562;2023-04-19T16:59:28;8.10;1.00
18690;DHT22;9782;52.930;15.562;2023-04-19T17:01:56;8.10;1.00
18690;DHT22;9782;52.930;15.562;2023-04-19T17:04:23;8.10;1.00
18690;DHT22;9782;52.930;15.562;2023-04-19T17:06:50;8.20;1.00
18690;DHT22;9782;52.930;15.562;2023-04-19T17:09:17;8.20;1.00
18690;DHT22;9782;52.930;15.562;2023-04-19T17:11:46;8.20;1.00
18690;DHT22;9782;52.930;15.562;2023-04-19T17:14:13;8.20;1.00
18690;DHT22;9782;52.930;15.562;2023-04-19T17:16:40;8.10;1.00
18690;DHT22;9782;52.930;15.562;2023-04-19T17:19:07;8.10;1.00
18690;DHT22;9782;52.930;15.562;2023-04-19T17:21:34;8.10;1.00
18690;DHT22;9782;52.930;15.562;2023-04-19T17:24:01;8.10;1.00
18690;DHT22;9782;52.930;15.562;2023-04-19T17:26:28;8.00;1.00
18690;DHT22;9782;52.930;15.562;2023-04-19T17:28:57;8.00;1.00
18690;DHT22;9782;52.930;15.562;2023-04-19T17:31:24;8.00;1.00
18690;DHT22;9782;52.930;15.562;2023-04-19T17:33:51;7.90;1.00
18690;DHT22;9782;52.930;15.562;2023-04-19T17:36:18;7.90;1.00
18690;DHT22;9782;52.930;15.562;2023-04-19T17:38:45;7.90;1.00
18690;DHT22;9782;52.930;15.562;2023-04-19T17:41:13;7.90;1.00
18690;DHT22;9782;52.930;15.562;2023-04-19T17:43:41;7.90;1.00
18690;DHT22;9782;52.930;15.562;2023-04-19T17:46:10;7.80;1.00
18690;DHT22;9782;52.930;15.562;2023-04-19T17:48:38;7.80;1.00
18690;DHT22;9782;52.930;15.562;2023-04-19T17:51:05;7.80;5.00
18690;DHT22;9782;52.930;15.562;2023-04-19T17:53:32;7.80;64.70
18690;DHT22;9782;52.930;15.562;2023-04-19T17:55:59;7.70;90.00
18690;DHT22;9782;52.930;15.562;2023-04-19T17:58:26;7.70;99.90
18690;DHT22;9782;52.930;15.562;2023-04-19T18:00:53;7.70;99.90
18690;DHT22;9782;52.930;15.562;2023-04-19T18:03:22;7.70;99.90
18690;DHT22;9782;52.930;15.562;2023-04-19T18:05:48;7.60;99.90
18690;DHT22;9782;52.930;15.562;2023-04-19T18:08:15;7.60;99.90
18690;DHT22;9782;52.930;15.562;2023-04-19T18:10:42;7.60;99.90
18690;DHT22;9782;52.930;15.562;2023-04-19T18:13:09;7.50;99.90
18690;DHT22;9782;52.930;15.562;2023-04-19T18:15:36;7.40;99.90
18690;DHT22;9782;52.930;15.562;2023-04-19T18:18:04;7.40;99.90
18690;DHT22;9782;52.930;15.562;2023-04-19T18:20:32;7.40;1.00
18690;DHT22;9782;52.930;15.562;2023-04-19T18:22:59;7.30;1.00
18690;DHT22;9782;52.930;15.562;2023-04-19T18:25:26;7.30;1.00
18690;DHT22;9782;52.930;15.562;2023-04-19T18:27:54;7.30;1.00
18690;DHT22;9782;52.930;15.562;2023-04-19T18:30:21;7.30;1.00
18690;DHT22;9782;52.930;15.562;2023-04-19T18:32:48;7.30;1.00
18690;DHT22;9782;52.930;15.562;2023-04-19T18:35:15;7.30;1.00
18690;DHT22;9782;52.930;15.562;2023-04-19T18:37:43;7.20;1.00
18690;DHT22;9782;52.930;15.562;2023-04-19T18:42:44;7.20;1.00
18690;DHT22;9782;52.930;15.562;2023-04-19T18:45:11;7.20;1.00
18690;DHT22;9782;52.930;15.562;2023-04-19T18:47:39;7.20;1.00
18690;DHT22;9782;52.930;15.562;2023-04-19T18:52:43;7.20;1.00
18690;DHT22;9782;52.930;15.562;2023-04-19T18:55:10;7.20;28.20
18690;DHT22;9782;52.930;15.562;2023-04-19T18:57:38;7.20;3.40
18690;DHT22;9782;52.930;15.562;2023-04-19T19:00:06;7.20;61.90
18690;DHT22;9782;52.930;15.562;2023-04-19T19:02:35;7.20;80.70
18690;DHT22;9782;52.930;15.562;2023-04-19T19:07:30;7.20;99.90
18690;DHT22;9782;52.930;15.562;2023-04-19T19:09:59;7.20;99.90
18690;DHT22;9782;52.930;15.562;2023-04-19T19:12:26;7.20;99.90
18690;DHT22;9782;52.930;15.562;2023-04-19T19:14:53;7.20;99.90
18690;DHT22;9782;52.930;15.562;2023-04-19T19:17:20;7.10;99.90
18690;DHT22;9782;52.930;15.562;2023-04-19T19:19:48;7.10;99.90
18690;DHT22;9782;52.930;15.562;2023-04-19T19:22:16;7.10;99.90
18690;DHT22;9782;52.930;15.562;2023-04-19T19:24:43;7.10;99.90
18690;DHT22;9782;52.930;15.562;2023-04-19T19:27:11;7.10;99.90
18690;DHT22;9782;52.930;15.562;2023-04-19T19:29:38;7.10;99.90
18690;DHT22;9782;52.930;15.562;2023-04-19T19:32:05;7.10;99.90
18690;DHT22;9782;52.930;15.562;2023-04-19T19:34:34;7.10;99.90
18690;DHT22;9782;52.930;15.562;2023-04-19T19:37:01;7.10;99.90
18690;DHT22;9782;52.930;15.562;2023-04-19T19:39:29;7.10;99.90
18690;DHT22;9782;52.930;15.562;2023-04-19T19:41:56;7.20;99.90
18690;DHT22;9782;52.930;15.562;2023-04-19T19:44:24;7.20;99.90
18690;DHT22;9782;52.930;15.562;2023-04-19T19:46:52;7.20;99.90
18690;DHT22;9782;52.930;15.562;2023-04-19T19:49:18;7.20;99.90
18690;DHT22;9782;52.930;15.562;2023-04-19T19:51:46;7.20;99.90
18690;DHT22;9782;52.930;15.562;2023-04-19T19:54:13;7.20;99.90
18690;DHT22;9782;52.930;15.562;2023-04-19T19:56:40;7.30;99.90
18690;DHT22;9782;52.930;15.562;2023-04-19T19:59:07;7.20;99.90
18690;DHT22;9782;52.930;15.562;2023-04-19T20:01:35;7.30;1.00
18690;DHT22;9782;52.930;15.562;2023-04-19T20:04:02;7.30;1.00
18690;DHT22;9782;52.930;15.562;2023-04-19T20:06:31;7.30;1.00
18690;DHT22;9782;52.930;15.562;2023-04-19T20:08:58;7.30;1.00
18690;DHT22;9782;52.930;15.562;2023-04-19T20:11:25;7.30;1.00
18690;DHT22;9782;52.930;15.562;2023-04-19T20:13:52;7.30;1.00
18690;DHT22;9782;52.930;15.562;2023-04-19T20:16:19;7.30;1.00
18690;DHT22;9782;52.930;15.562;2023-04-19T20:18:49;7.30;1.00
18690;DHT22;9782;52.930;15.562;2023-04-19T20:21:17;7.30;1.00
18690;DHT22;9782;52.930;15.562;2023-04-19T20:23:44;7.30;1.00
18690;DHT22;9782;52.930;15.562;2023-04-19T20:26:12;7.30;1.00
18690;DHT22;9782;52.930;15.562;2023-04-19T20:28:39;7.30;1.00
18690;DHT22;9782;52.930;15.562;2023-04-19T20:31:06;7.30;1.00
18690;DHT22;9782;52.930;15.562;2023-04-19T20:33:33;7.30;1.00
18690;DHT22;9782;52.930;15.562;2023-04-19T20:36:02;7.30;1.00
18690;DHT22;9782;52.930;15.562;2023-04-19T20:38:29;7.20;1.00
18690;DHT22;9782;52.930;15.562;2023-04-19T20:40:57;7.20;1.00
18690;DHT22;9782;52.930;15.562;2023-04-19T20:43:24;7.20;1.00
18690;DHT22;9782;52.930;15.562;2023-04-19T20:45:51;7.20;1.00
18690;DHT22;9782;52.930;15.562;2023-04-19T20:48:18;7.20;1.00
18690;DHT22;9782;52.930;15.562;2023-04-19T20:50:45;7.20;1.00
18690;DHT22;9782;52.930;15.562;2023-04-19T20:53:13;7.20;1.00
18690;DHT22;9782;52.930;15.562;2023-04-19T20:55:41;7.20;1.00
18690;DHT22;9782;52.930;15.562;2023-04-19T20:58:08;7.20;1.00
18690;DHT22;9782;52.930;15.562;2023-04-19T21:00:35;7.20;1.00
18690;DHT22;9782;52.930;15.562;2023-04-19T21:03:03;7.20;1.00
18690;DHT22;9782;52.930;15.562;2023-04-19T21:05:30;7.10;1.00
18690;DHT22;9782;52.930;15.562;2023-04-19T21:07:58;7.10;1.00
18690;DHT22;9782;52.930;15.562;2023-04-19T21:10:26;7.10;21.50
18690;DHT22;9782;52.930;15.562;2023-04-19T21:12:53;7.10;93.90
18690;DHT22;9782;52.930;15.562;2023-04-19T21:15:20;7.00;99.90
18690;DHT22;9782;52.930;15.562;2023-04-19T21:17:47;7.10;99.90
18690;DHT22;9782;52.930;15.562;2023-04-19T21:20:14;7.10;99.90
18690;DHT22;9782;52.930;15.562;2023-04-19T21:22:44;7.10;99.90
18690;DHT22;9782;52.930;15.562;2023-04-19T21:25:11;7.10;99.90
18690;DHT22;9782;52.930;15.562;2023-04-19T21:27:41;7.10;99.90
18690;DHT22;9782;52.930;15.562;2023-04-19T21:30:09;7.00;99.90
18690;DHT22;9782;52.930;15.562;2023-04-19T21:32:37;7.00;99.90
18690;DHT22;9782;52.930;15.562;2023-04-19T21:35:04;7.10;99.90
18690;DHT22;9782;52.930;15.562;2023-04-19T21:37:32;7.10;1.00
18690;DHT22;9782;52.930;15.562;2023-04-19T21:39:59;7.10;1.00
18690;DHT22;9782;52.930;15.562;2023-04-19T21:42:26;7.10;1.00
18690;DHT22;9782;52.930;15.562;2023-04-19T21:44:54;7.00;1.00
18690;DHT22;9782;52.930;15.562;2023-04-19T21:47:21;7.10;1.00
18690;DHT22;9782;52.930;15.562;2023-04-19T21:49:49;7.10;1.00
18690;DHT22;9782;52.930;15.562;2023-04-19T21:52:16;7.00;1.00
18690;DHT22;9782;52.930;15.562;2023-04-19T21:54:43;7.10;1.00
18690;DHT22;9782;52.930;15.562;2023-04-19T21:57:13;7.10;1.00
18690;DHT22;9782;52.930;15.562;2023-04-19T21:59:42;7.10;1.00